sensor_id;sensor_type;location;lat;lon;timestamp;pressure;altitude;pressure_sealevel;temperature;humidity
62248;BME280;48237;50.140;8.486;2022-09-09T00:01:49;99097.59;;;17.17;92.55
62248;BME280;48237;50.140;8.486;2022-09-09T00:04:26;99091.43;;;17.55;90.82
62248;BME280;48237;50.140;8.486;2022-09-09T00:07:01;99093.54;;;17.82;85.88
62248;BME280;48237;50.140;8.486;2022-09-09T00:09:36;99092.35;;;18.27;85.57
62248;BME280;48237;50.140;8.486;2022-09-09T00:12:11;99088.48;;;17.18;89.71
62248;BME280;48237;50.140;8.486;2022-09-09T00:14:46;99086.06;;;16.99;92.04
62248;BME280;48237;50.140;8.486;2022-09-09T00:17:25;99085.11;;;16.49;98.31
62248;BME280;48237;50.140;8.486;2022-09-09T00:20:02;99085.95;;;16.35;96.29
62248;BME280;48237;50.140;8.486;2022-09-09T00:22:41;99083.47;;;16.84;94.39
62248;BME280;48237;50.140;8.486;2022-09-09T00:25:14;99082.76;;;17.27;91.82
62248;BME280;48237;50.140;8.486;2022-09-09T00:27:46;99086.11;;;17.07;92.38
62248;BME280;48237;50.140;8.486;2022-09-09T00:30:17;99085.59;;;16.96;92.37
62248;BME280;48237;50.140;8.486;2022-09-09T00:32:45;99084.36;;;16.76;90.60
62248;BME280;48237;50.140;8.486;2022-09-09T00:35:18;99079.19;;;17.65;86.79
62248;BME280;48237;50.140;8.486;2022-09-09T00:37:48;99080.56;;;16.91;88.98
62248;BME280;48237;50.140;8.486;2022-09-09T00:40:23;99080.04;;;17.01;90.33
62248;BME280;48237;50.140;8.486;2022-09-09T00:42:59;99080.41;;;16.64;92.70
62248;BME280;48237;50.140;8.486;2022-09-09T00:45:47;99081.96;;;16.84;89.26
62248;BME280;48237;50.140;8.486;2022-09-09T00:48:20;99084.12;;;15.99;91.88
62248;BME280;48237;50.140;8.486;2022-09-09T00:50:55;99080.15;;;16.61;87.46
62248;BME280;48237;50.140;8.486;2022-09-09T00:53:31;99083.20;;;16.83;87.97
62248;BME280;48237;50.140;8.486;2022-09-09T00:56:11;99091.20;;;16.06;91.54
62248;BME280;48237;50.140;8.486;2022-09-09T00:58:40;99096.85;;;16.56;90.04
62248;BME280;48237;50.140;8.486;2022-09-09T01:01:10;99092.82;;;16.61;89.42
62248;BME280;48237;50.140;8.486;2022-09-09T01:03:42;99092.94;;;16.10;92.19
62248;BME280;48237;50.140;8.486;2022-09-09T01:06:16;99088.62;;;16.38;90.08
62248;BME280;48237;50.140;8.486;2022-09-09T01:09:02;99091.96;;;15.49;95.98
62248;BME280;48237;50.140;8.486;2022-09-09T01:11:39;99089.07;;;16.72;88.06
62248;BME280;48237;50.140;8.486;2022-09-09T01:14:16;99087.55;;;16.18;87.17
62248;BME280;48237;50.140;8.486;2022-09-09T01:16:47;99089.68;;;16.94;88.46
62248;BME280;48237;50.140;8.486;2022-09-09T01:19:20;99091.15;;;16.25;90.15
62248;BME280;48237;50.140;8.486;2022-09-09T01:21:59;99090.03;;;16.86;87.10
62248;BME280;48237;50.140;8.486;2022-09-09T01:24:31;99093.04;;;16.28;86.72
62248;BME280;48237;50.140;8.486;2022-09-09T01:27:06;99092.41;;;16.02;89.01
62248;BME280;48237;50.140;8.486;2022-09-09T01:29:33;99096.18;;;16.49;89.33
62248;BME280;48237;50.140;8.486;2022-09-09T01:32:02;99097.90;;;16.11;88.72
62248;BME280;48237;50.140;8.486;2022-09-09T01:34:33;99094.73;;;16.87;86.48
62248;BME280;48237;50.140;8.486;2022-09-09T01:37:04;99093.13;;;16.70;84.41
62248;BME280;48237;50.140;8.486;2022-09-09T01:39:33;99088.13;;;16.39;85.21
62248;BME280;48237;50.140;8.486;2022-09-09T01:42:02;99078.15;;;16.59;83.27
62248;BME280;48237;50.140;8.486;2022-09-09T01:44:31;99076.32;;;16.55;84.30
62248;BME280;48237;50.140;8.486;2022-09-09T01:46:59;99079.37;;;16.33;86.43
62248;BME280;48237;50.140;8.486;2022-09-09T01:49:26;99078.88;;;16.68;86.51
62248;BME280;48237;50.140;8.486;2022-09-09T01:51:55;99082.51;;;16.21;88.70
62248;BME280;48237;50.140;8.486;2022-09-09T01:54:25;99083.49;;;15.17;93.19
62248;BME280;48237;50.140;8.486;2022-09-09T01:57:01;99083.45;;;15.79;87.89
62248;BME280;48237;50.140;8.486;2022-09-09T01:59:44;99088.54;;;16.37;86.89
62248;BME280;48237;50.140;8.486;2022-09-09T02:02:18;99093.84;;;14.59;97.86
62248;BME280;48237;50.140;8.486;2022-09-09T02:04:48;99090.38;;;16.21;88.98
62248;BME280;48237;50.140;8.486;2022-09-09T02:07:25;99089.69;;;16.29;87.71
62248;BME280;48237;50.140;8.486;2022-09-09T02:10:00;99088.96;;;15.19;93.30
62248;BME280;48237;50.140;8.486;2022-09-09T02:12:30;99090.18;;;16.08;88.44
62248;BME280;48237;50.140;8.486;2022-09-09T02:15:03;99089.43;;;16.21;87.84
62248;BME280;48237;50.140;8.486;2022-09-09T02:17:34;99093.28;;;15.31;90.29
62248;BME280;48237;50.140;8.486;2022-09-09T02:20:09;99093.16;;;16.15;86.49
62248;BME280;48237;50.140;8.486;2022-09-09T02:22:40;99093.36;;;15.87;90.12
62248;BME280;48237;50.140;8.486;2022-09-09T02:25:10;99096.36;;;15.69;90.22
62248;BME280;48237;50.140;8.486;2022-09-09T02:27:40;99095.92;;;15.80;91.98
62248;BME280;48237;50.140;8.486;2022-09-09T02:30:10;99100.07;;;15.31;92.12
62248;BME280;48237;50.140;8.486;2022-09-09T02:32:38;99101.73;;;15.61;88.20
62248;BME280;48237;50.140;8.486;2022-09-09T02:35:09;99101.28;;;16.06;85.75
62248;BME280;48237;50.140;8.486;2022-09-09T02:37:39;99102.53;;;16.30;88.22
62248;BME280;48237;50.140;8.486;2022-09-09T02:40:09;99101.83;;;15.82;92.60
62248;BME280;48237;50.140;8.486;2022-09-09T02:42:39;99101.04;;;14.33;100.00
62248;BME280;48237;50.140;8.486;2022-09-09T02:45:07;99091.47;;;16.40;88.43
62248;BME280;48237;50.140;8.486;2022-09-09T02:47:36;99090.51;;;14.94;93.63
62248;BME280;48237;50.140;8.486;2022-09-09T02:50:12;99089.59;;;16.09;90.05
62248;BME280;48237;50.140;8.486;2022-09-09T02:52:46;99089.81;;;15.18;96.87
62248;BME280;48237;50.140;8.486;2022-09-09T02:55:18;99093.14;;;15.55;98.80
62248;BME280;48237;50.140;8.486;2022-09-09T02:57:51;99092.45;;;16.18;94.83
62248;BME280;48237;50.140;8.486;2022-09-09T03:00:24;99092.52;;;16.11;92.91
62248;BME280;48237;50.140;8.486;2022-09-09T03:02:51;99089.16;;;15.60;97.85
62248;BME280;48237;50.140;8.486;2022-09-09T03:05:19;99080.71;;;16.50;91.44
62248;BME280;48237;50.140;8.486;2022-09-09T03:07:46;99082.79;;;16.05;89.06
62248;BME280;48237;50.140;8.486;2022-09-09T03:10:13;99085.01;;;16.79;88.70
62248;BME280;48237;50.140;8.486;2022-09-09T03:12:41;99084.57;;;15.84;89.98
62248;BME280;48237;50.140;8.486;2022-09-09T03:15:08;99078.91;;;15.84;90.70
62248;BME280;48237;50.140;8.486;2022-09-09T03:17:36;99078.30;;;16.32;91.55
62248;BME280;48237;50.140;8.486;2022-09-09T03:20:04;99073.51;;;16.21;90.82
62248;BME280;48237;50.140;8.486;2022-09-09T03:22:32;99074.45;;;17.44;85.20
62248;BME280;48237;50.140;8.486;2022-09-09T03:24:59;99081.56;;;16.38;90.74
62248;BME280;48237;50.140;8.486;2022-09-09T03:27:26;99074.75;;;16.29;91.59
62248;BME280;48237;50.140;8.486;2022-09-09T03:29:53;99079.14;;;16.44;90.55
62248;BME280;48237;50.140;8.486;2022-09-09T03:32:20;99088.49;;;15.88;93.08
62248;BME280;48237;50.140;8.486;2022-09-09T03:34:47;99089.06;;;16.27;91.91
62248;BME280;48237;50.140;8.486;2022-09-09T03:37:15;99093.64;;;16.72;88.90
62248;BME280;48237;50.140;8.486;2022-09-09T03:39:42;99092.96;;;16.63;87.63
62248;BME280;48237;50.140;8.486;2022-09-09T03:42:09;99096.35;;;16.73;87.10
62248;BME280;48237;50.140;8.486;2022-09-09T03:44:35;99092.86;;;16.49;87.37
62248;BME280;48237;50.140;8.486;2022-09-09T03:47:02;99089.89;;;16.76;86.07
62248;BME280;48237;50.140;8.486;2022-09-09T03:49:29;99094.12;;;16.53;86.75
62248;BME280;48237;50.140;8.486;2022-09-09T03:51:57;99095.45;;;16.56;87.25
62248;BME280;48237;50.140;8.486;2022-09-09T03:54:24;99091.19;;;17.00;87.05
62248;BME280;48237;50.140;8.486;2022-09-09T03:56:51;99093.75;;;16.61;88.82
62248;BME280;48237;50.140;8.486;2022-09-09T03:59:18;99089.81;;;16.73;88.78
62248;BME280;48237;50.140;8.486;2022-09-09T04:01:45;99091.85;;;16.12;92.15
62248;BME280;48237;50.140;8.486;2022-09-09T04:04:11;99087.48;;;16.63;90.43
62248;BME280;48237;50.140;8.486;2022-09-09T04:06:38;99077.05;;;17.13;85.96
62248;BME280;48237;50.140;8.486;2022-09-09T04:09:05;99070.30;;;16.43;88.58
62248;BME280;48237;50.140;8.486;2022-09-09T04:11:32;99069.37;;;16.71;85.60
62248;BME280;48237;50.140;8.486;2022-09-09T04:14:00;99064.67;;;16.53;86.43
62248;BME280;48237;50.140;8.486;2022-09-09T04:16:27;99065.46;;;16.17;87.67
62248;BME280;48237;50.140;8.486;2022-09-09T04:18:54;99061.81;;;16.61;88.62
62248;BME280;48237;50.140;8.486;2022-09-09T04:21:20;99062.26;;;16.18;89.80
62248;BME280;48237;50.140;8.486;2022-09-09T04:23:47;99062.41;;;16.02;90.91
62248;BME280;48237;50.140;8.486;2022-09-09T04:26:14;99058.18;;;16.48;87.71
62248;BME280;48237;50.140;8.486;2022-09-09T04:28:41;99059.16;;;16.27;88.80
62248;BME280;48237;50.140;8.486;2022-09-09T04:31:10;99056.61;;;16.49;88.90
62248;BME280;48237;50.140;8.486;2022-09-09T04:33:38;99054.83;;;16.98;87.91
62248;BME280;48237;50.140;8.486;2022-09-09T04:36:05;99053.13;;;15.94;92.78
62248;BME280;48237;50.140;8.486;2022-09-09T04:38:32;99061.61;;;16.34;91.46
62248;BME280;48237;50.140;8.486;2022-09-09T04:40:59;99057.52;;;16.24;91.56
62248;BME280;48237;50.140;8.486;2022-09-09T04:43:27;99053.13;;;16.13;92.75
62248;BME280;48237;50.140;8.486;2022-09-09T04:45:54;99062.13;;;15.97;93.33
62248;BME280;48237;50.140;8.486;2022-09-09T04:48:21;99069.07;;;16.47;89.74
62248;BME280;48237;50.140;8.486;2022-09-09T04:50:56;99073.33;;;17.08;87.94
62248;BME280;48237;50.140;8.486;2022-09-09T04:53:23;99068.69;;;17.00;84.72
62248;BME280;48237;50.140;8.486;2022-09-09T04:55:51;99075.84;;;16.58;87.96
62248;BME280;48237;50.140;8.486;2022-09-09T04:58:19;99075.09;;;17.25;84.15
62248;BME280;48237;50.140;8.486;2022-09-09T05:00:45;99065.33;;;17.01;83.01
62248;BME280;48237;50.140;8.486;2022-09-09T05:03:12;99075.01;;;16.95;82.95
62248;BME280;48237;50.140;8.486;2022-09-09T05:05:39;99073.22;;;17.18;83.84
62248;BME280;48237;50.140;8.486;2022-09-09T05:08:07;99082.33;;;16.06;89.33
62248;BME280;48237;50.140;8.486;2022-09-09T05:10:37;99087.99;;;15.76;91.88
62248;BME280;48237;50.140;8.486;2022-09-09T05:13:05;99090.13;;;16.32;89.70
62248;BME280;48237;50.140;8.486;2022-09-09T05:15:32;99086.94;;;16.32;90.05
62248;BME280;48237;50.140;8.486;2022-09-09T05:18:00;99084.04;;;16.96;86.84
62248;BME280;48237;50.140;8.486;2022-09-09T05:20:28;99094.53;;;16.42;87.98
62248;BME280;48237;50.140;8.486;2022-09-09T05:22:56;99100.62;;;16.68;87.14
62248;BME280;48237;50.140;8.486;2022-09-09T05:25:23;99099.89;;;16.20;90.96
62248;BME280;48237;50.140;8.486;2022-09-09T05:27:51;99096.39;;;16.84;84.86
62248;BME280;48237;50.140;8.486;2022-09-09T05:30:18;99104.92;;;16.42;86.99
62248;BME280;48237;50.140;8.486;2022-09-09T05:32:45;99104.09;;;17.17;84.08
62248;BME280;48237;50.140;8.486;2022-09-09T05:35:12;99107.66;;;17.63;82.06
62248;BME280;48237;50.140;8.486;2022-09-09T05:37:38;99114.13;;;17.50;84.41
62248;BME280;48237;50.140;8.486;2022-09-09T05:40:06;99119.02;;;17.05;86.20
62248;BME280;48237;50.140;8.486;2022-09-09T05:42:33;99119.36;;;17.32;84.60
62248;BME280;48237;50.140;8.486;2022-09-09T05:45:00;99125.19;;;17.05;86.18
62248;BME280;48237;50.140;8.486;2022-09-09T05:47:28;99122.21;;;17.18;85.62
62248;BME280;48237;50.140;8.486;2022-09-09T05:49:55;99124.39;;;17.62;84.21
62248;BME280;48237;50.140;8.486;2022-09-09T05:52:21;99124.04;;;17.58;84.38
62248;BME280;48237;50.140;8.486;2022-09-09T05:54:48;99123.30;;;17.48;83.21
62248;BME280;48237;50.140;8.486;2022-09-09T05:57:15;99129.42;;;16.64;87.17
62248;BME280;48237;50.140;8.486;2022-09-09T05:59:42;99135.27;;;17.03;89.19
62248;BME280;48237;50.140;8.486;2022-09-09T06:02:09;99139.42;;;17.31;86.19
62248;BME280;48237;50.140;8.486;2022-09-09T06:04:36;99137.59;;;17.89;84.53
62248;BME280;48237;50.140;8.486;2022-09-09T06:07:03;99142.45;;;16.35;91.14
62248;BME280;48237;50.140;8.486;2022-09-09T06:09:30;99143.83;;;16.95;91.65
62248;BME280;48237;50.140;8.486;2022-09-09T06:11:57;99142.64;;;16.21;95.50
62248;BME280;48237;50.140;8.486;2022-09-09T06:14:24;99141.66;;;16.63;95.72
62248;BME280;48237;50.140;8.486;2022-09-09T06:16:51;99142.66;;;16.23;97.76
62248;BME280;48237;50.140;8.486;2022-09-09T06:19:18;99142.01;;;15.60;100.00
62248;BME280;48237;50.140;8.486;2022-09-09T06:21:45;99135.29;;;15.31;100.00
62248;BME280;48237;50.140;8.486;2022-09-09T06:24:11;99129.94;;;16.69;100.00
62248;BME280;48237;50.140;8.486;2022-09-09T06:26:39;99130.30;;;16.53;100.00
62248;BME280;48237;50.140;8.486;2022-09-09T06:29:07;99127.61;;;17.53;97.78
62248;BME280;48237;50.140;8.486;2022-09-09T06:31:35;99132.81;;;15.70;100.00
62248;BME280;48237;50.140;8.486;2022-09-09T06:34:05;99130.86;;;17.58;94.26
62248;BME280;48237;50.140;8.486;2022-09-09T06:36:34;99131.07;;;17.58;94.76
62248;BME280;48237;50.140;8.486;2022-09-09T06:39:01;99136.29;;;16.95;100.00
62248;BME280;48237;50.140;8.486;2022-09-09T06:41:30;99135.96;;;16.90;100.00
62248;BME280;48237;50.140;8.486;2022-09-09T06:43:58;99137.78;;;16.74;100.00
62248;BME280;48237;50.140;8.486;2022-09-09T06:46:26;99134.60;;;17.16;97.10
62248;BME280;48237;50.140;8.486;2022-09-09T06:48:55;99135.62;;;17.05;99.78
62248;BME280;48237;50.140;8.486;2022-09-09T06:51:23;99139.71;;;18.09;89.07
62248;BME280;48237;50.140;8.486;2022-09-09T06:53:52;99135.96;;;17.25;98.52
62248;BME280;48237;50.140;8.486;2022-09-09T06:56:21;99137.45;;;17.74;92.83
62248;BME280;48237;50.140;8.486;2022-09-09T06:58:50;99145.68;;;16.65;95.51
62248;BME280;48237;50.140;8.486;2022-09-09T07:01:19;99144.25;;;15.99;100.00
62248;BME280;48237;50.140;8.486;2022-09-09T07:03:47;99138.83;;;17.23;95.52
62248;BME280;48237;50.140;8.486;2022-09-09T07:06:16;99143.90;;;16.30;100.00
62248;BME280;48237;50.140;8.486;2022-09-09T07:08:43;99142.16;;;17.96;89.18
62248;BME280;48237;50.140;8.486;2022-09-09T07:11:11;99140.91;;;18.11;91.66
62248;BME280;48237;50.140;8.486;2022-09-09T07:13:38;99143.37;;;17.84;88.07
62248;BME280;48237;50.140;8.486;2022-09-09T07:16:06;99144.42;;;18.69;84.04
62248;BME280;48237;50.140;8.486;2022-09-09T07:18:34;99143.24;;;16.94;96.80
62248;BME280;48237;50.140;8.486;2022-09-09T07:21:02;99146.87;;;15.67;100.00
62248;BME280;48237;50.140;8.486;2022-09-09T07:23:30;99148.88;;;15.74;100.00
62248;BME280;48237;50.140;8.486;2022-09-09T07:25:58;99153.79;;;16.51;99.42
62248;BME280;48237;50.140;8.486;2022-09-09T07:28:25;99149.00;;;17.35;97.20
62248;BME280;48237;50.140;8.486;2022-09-09T07:30:54;99149.82;;;17.36;94.59
62248;BME280;48237;50.140;8.486;2022-09-09T07:33:21;99148.50;;;17.84;92.29
62248;BME280;48237;50.140;8.486;2022-09-09T07:35:49;99151.27;;;17.49;94.44
62248;BME280;48237;50.140;8.486;2022-09-09T07:38:16;99152.31;;;17.75;93.69
62248;BME280;48237;50.140;8.486;2022-09-09T07:40:43;99153.01;;;17.14;95.88
62248;BME280;48237;50.140;8.486;2022-09-09T07:43:10;99151.91;;;18.20;88.64
62248;BME280;48237;50.140;8.486;2022-09-09T07:45:37;99155.09;;;18.50;89.41
62248;BME280;48237;50.140;8.486;2022-09-09T07:48:05;99157.27;;;17.10;99.08
62248;BME280;48237;50.140;8.486;2022-09-09T07:50:33;99160.55;;;17.54;95.16
62248;BME280;48237;50.140;8.486;2022-09-09T07:53:01;99164.43;;;18.03;94.00
62248;BME280;48237;50.140;8.486;2022-09-09T07:55:28;99162.77;;;18.21;84.59
62248;BME280;48237;50.140;8.486;2022-09-09T07:57:55;99172.16;;;18.42;88.74
62248;BME280;48237;50.140;8.486;2022-09-09T08:00:22;99178.13;;;19.64;82.48
62248;BME280;48237;50.140;8.486;2022-09-09T08:02:49;99174.48;;;19.80;77.54
62248;BME280;48237;50.140;8.486;2022-09-09T08:05:17;99175.24;;;18.53;85.21
62248;BME280;48237;50.140;8.486;2022-09-09T08:07:44;99179.67;;;18.28;88.41
62248;BME280;48237;50.140;8.486;2022-09-09T08:10:11;99182.50;;;19.14;82.77
62248;BME280;48237;50.140;8.486;2022-09-09T08:12:37;99178.44;;;18.92;81.97
62248;BME280;48237;50.140;8.486;2022-09-09T08:15:05;99181.68;;;16.50;100.00
62248;BME280;48237;50.140;8.486;2022-09-09T08:17:32;99176.07;;;19.13;82.96
62248;BME280;48237;50.140;8.486;2022-09-09T08:19:59;99176.91;;;18.05;90.19
62248;BME280;48237;50.140;8.486;2022-09-09T08:22:26;99175.03;;;17.13;92.41
62248;BME280;48237;50.140;8.486;2022-09-09T08:24:53;99176.71;;;18.29;89.44
62248;BME280;48237;50.140;8.486;2022-09-09T08:27:20;99176.13;;;18.24;89.59
62248;BME280;48237;50.140;8.486;2022-09-09T08:29:47;99174.56;;;18.95;85.05
62248;BME280;48237;50.140;8.486;2022-09-09T08:32:14;99172.77;;;19.81;76.66
62248;BME280;48237;50.140;8.486;2022-09-09T08:34:41;99177.45;;;18.97;82.36
62248;BME280;48237;50.140;8.486;2022-09-09T08:37:07;99182.13;;;18.87;83.35
62248;BME280;48237;50.140;8.486;2022-09-09T08:39:34;99179.24;;;18.14;87.81
62248;BME280;48237;50.140;8.486;2022-09-09T08:42:16;99170.67;;;17.04;93.01
62248;BME280;48237;50.140;8.486;2022-09-09T08:45:01;99164.92;;;16.14;100.00
62248;BME280;48237;50.140;8.486;2022-09-09T08:47:38;99161.46;;;17.67;91.23
62248;BME280;48237;50.140;8.486;2022-09-09T08:50:18;99158.14;;;16.74;97.38
62248;BME280;48237;50.140;8.486;2022-09-09T08:52:52;99155.92;;;18.27;87.98
62248;BME280;48237;50.140;8.486;2022-09-09T08:55:25;99152.39;;;19.18;79.69
62248;BME280;48237;50.140;8.486;2022-09-09T08:57:55;99152.64;;;18.72;82.65
62248;BME280;48237;50.140;8.486;2022-09-09T09:00:29;99158.59;;;19.31;79.49
62248;BME280;48237;50.140;8.486;2022-09-09T09:03:07;99152.30;;;18.35;88.09
62248;BME280;48237;50.140;8.486;2022-09-09T09:05:44;99151.24;;;17.77;89.97
62248;BME280;48237;50.140;8.486;2022-09-09T09:08:20;99165.69;;;17.44;94.45
62248;BME280;48237;50.140;8.486;2022-09-09T09:10:55;99168.54;;;18.15;84.62
62248;BME280;48237;50.140;8.486;2022-09-09T09:13:27;99171.66;;;18.49;85.09
62248;BME280;48237;50.140;8.486;2022-09-09T09:16:02;99173.55;;;18.44;86.31
62248;BME280;48237;50.140;8.486;2022-09-09T09:18:31;99176.35;;;16.77;99.49
62248;BME280;48237;50.140;8.486;2022-09-09T09:21:05;99177.58;;;18.18;87.48
62248;BME280;48237;50.140;8.486;2022-09-09T09:23:40;99173.03;;;18.79;81.66
62248;BME280;48237;50.140;8.486;2022-09-09T09:26:10;99174.15;;;18.55;82.07
62248;BME280;48237;50.140;8.486;2022-09-09T09:28:37;99170.51;;;18.17;88.16
62248;BME280;48237;50.140;8.486;2022-09-09T09:31:08;99169.48;;;17.86;93.42
62248;BME280;48237;50.140;8.486;2022-09-09T09:33:46;99165.18;;;18.38;88.76
62248;BME280;48237;50.140;8.486;2022-09-09T09:36:14;99164.14;;;17.96;89.71
62248;BME280;48237;50.140;8.486;2022-09-09T09:38:53;99173.03;;;19.18;82.81
62248;BME280;48237;50.140;8.486;2022-09-09T09:41:30;99166.17;;;19.08;80.83
62248;BME280;48237;50.140;8.486;2022-09-09T09:43:57;99168.62;;;19.02;83.79
62248;BME280;48237;50.140;8.486;2022-09-09T09:46:25;99170.04;;;18.85;83.24
62248;BME280;48237;50.140;8.486;2022-09-09T09:49:02;99169.94;;;19.71;79.70
62248;BME280;48237;50.140;8.486;2022-09-09T09:51:30;99162.30;;;18.83;83.22
62248;BME280;48237;50.140;8.486;2022-09-09T09:54:09;99162.23;;;18.88;85.99
62248;BME280;48237;50.140;8.486;2022-09-09T09:56:42;99161.59;;;18.56;86.72
62248;BME280;48237;50.140;8.486;2022-09-09T09:59:20;99166.90;;;19.15;80.19
62248;BME280;48237;50.140;8.486;2022-09-09T10:01:49;99164.54;;;18.77;91.29
62248;BME280;48237;50.140;8.486;2022-09-09T10:04:18;99163.06;;;19.85;81.79
62248;BME280;48237;50.140;8.486;2022-09-09T10:06:46;99160.85;;;18.83;85.00
62248;BME280;48237;50.140;8.486;2022-09-09T10:09:23;99161.52;;;18.95;82.40
62248;BME280;48237;50.140;8.486;2022-09-09T10:11:57;99164.95;;;18.88;87.08
62248;BME280;48237;50.140;8.486;2022-09-09T10:14:33;99152.24;;;18.36;97.05
62248;BME280;48237;50.140;8.486;2022-09-09T10:17:15;99156.52;;;18.89;93.53
62248;BME280;48237;50.140;8.486;2022-09-09T10:19:55;99149.71;;;18.98;90.28
62248;BME280;48237;50.140;8.486;2022-09-09T10:22:27;99145.61;;;19.21;90.26
62248;BME280;48237;50.140;8.486;2022-09-09T10:25:13;99151.09;;;19.15;93.00
62248;BME280;48237;50.140;8.486;2022-09-09T10:27:53;99143.38;;;18.99;89.56
62248;BME280;48237;50.140;8.486;2022-09-09T10:30:29;99141.00;;;18.22;91.29
62248;BME280;48237;50.140;8.486;2022-09-09T10:33:08;99137.18;;;19.19;83.05
62248;BME280;48237;50.140;8.486;2022-09-09T10:35:43;99130.27;;;19.79;80.75
62248;BME280;48237;50.140;8.486;2022-09-09T10:38:16;99134.44;;;18.35;88.96
62248;BME280;48237;50.140;8.486;2022-09-09T10:40:59;99132.05;;;19.54;78.96
62248;BME280;48237;50.140;8.486;2022-09-09T10:43:40;99135.68;;;19.64;75.50
62248;BME280;48237;50.140;8.486;2022-09-09T10:46:15;99133.40;;;19.79;76.46
62248;BME280;48237;50.140;8.486;2022-09-09T10:48:57;99130.88;;;19.82;76.21
62248;BME280;48237;50.140;8.486;2022-09-09T10:51:35;99131.53;;;20.43;71.25
62248;BME280;48237;50.140;8.486;2022-09-09T10:54:17;99127.20;;;19.43;76.53
62248;BME280;48237;50.140;8.486;2022-09-09T10:56:52;99121.98;;;19.92;83.23
62248;BME280;48237;50.140;8.486;2022-09-09T10:59:24;99126.71;;;19.81;76.98
62248;BME280;48237;50.140;8.486;2022-09-09T11:01:55;99118.92;;;20.69;66.34
62248;BME280;48237;50.140;8.486;2022-09-09T11:04:27;99119.72;;;20.06;69.87
62248;BME280;48237;50.140;8.486;2022-09-09T11:06:57;99116.21;;;20.39;68.72
62248;BME280;48237;50.140;8.486;2022-09-09T11:09:28;99113.81;;;20.72;71.02
62248;BME280;48237;50.140;8.486;2022-09-09T11:11:57;99111.21;;;20.09;74.19
62248;BME280;48237;50.140;8.486;2022-09-09T11:14:29;99107.83;;;20.72;65.99
62248;BME280;48237;50.140;8.486;2022-09-09T11:17:02;99111.20;;;20.67;70.19
62248;BME280;48237;50.140;8.486;2022-09-09T11:19:34;99108.76;;;20.45;69.47
62248;BME280;48237;50.140;8.486;2022-09-09T11:22:04;99111.12;;;20.88;59.48
62248;BME280;48237;50.140;8.486;2022-09-09T11:24:36;99110.95;;;20.39;61.28
62248;BME280;48237;50.140;8.486;2022-09-09T11:27:09;99107.47;;;20.61;58.40
62248;BME280;48237;50.140;8.486;2022-09-09T11:30:50;99100.98;;;20.94;53.82
62248;BME280;48237;50.140;8.486;2022-09-09T11:33:41;99106.48;;;20.93;55.09
62248;BME280;48237;50.140;8.486;2022-09-09T11:37:29;99104.57;;;20.91;55.33
62248;BME280;48237;50.140;8.486;2022-09-09T11:40:09;99106.48;;;20.32;63.08
62248;BME280;48237;50.140;8.486;2022-09-09T11:42:41;99107.02;;;20.40;58.87
62248;BME280;48237;50.140;8.486;2022-09-09T11:45:11;99101.28;;;21.28;54.37
62248;BME280;48237;50.140;8.486;2022-09-09T11:47:38;99100.34;;;20.69;52.49
62248;BME280;48237;50.140;8.486;2022-09-09T11:50:11;99099.77;;;21.14;54.96
62248;BME280;48237;50.140;8.486;2022-09-09T11:53:06;99098.27;;;20.86;54.96
62248;BME280;48237;50.140;8.486;2022-09-09T11:55:42;99105.61;;;19.93;58.74
62248;BME280;48237;50.140;8.486;2022-09-09T11:58:15;99107.84;;;20.74;58.72
62248;BME280;48237;50.140;8.486;2022-09-09T12:00:45;99110.16;;;20.74;55.32
62248;BME280;48237;50.140;8.486;2022-09-09T12:03:38;99109.28;;;20.33;57.83
62248;BME280;48237;50.140;8.486;2022-09-09T12:06:15;99107.11;;;21.01;58.08
62248;BME280;48237;50.140;8.486;2022-09-09T12:08:47;99107.19;;;21.40;58.48
62248;BME280;48237;50.140;8.486;2022-09-09T12:11:24;99112.02;;;21.05;59.88
62248;BME280;48237;50.140;8.486;2022-09-09T12:13:54;99111.51;;;21.76;54.09
62248;BME280;48237;50.140;8.486;2022-09-09T12:16:32;99112.16;;;20.81;56.86
62248;BME280;48237;50.140;8.486;2022-09-09T12:19:15;99106.73;;;20.58;57.54
62248;BME280;48237;50.140;8.486;2022-09-09T12:21:51;99104.22;;;20.08;61.25
62248;BME280;48237;50.140;8.486;2022-09-09T12:24:28;99101.79;;;20.34;59.26
62248;BME280;48237;50.140;8.486;2022-09-09T12:27:06;99103.17;;;20.97;55.51
62248;BME280;48237;50.140;8.486;2022-09-09T12:29:41;99103.29;;;20.29;55.74
62248;BME280;48237;50.140;8.486;2022-09-09T12:32:15;99103.71;;;20.22;55.14
62248;BME280;48237;50.140;8.486;2022-09-09T12:34:46;99104.56;;;20.57;55.05
62248;BME280;48237;50.140;8.486;2022-09-09T12:37:18;99104.32;;;19.86;57.57
62248;BME280;48237;50.140;8.486;2022-09-09T12:39:52;99122.77;;;19.25;60.81
62248;BME280;48237;50.140;8.486;2022-09-09T12:42:22;99121.59;;;19.33;63.02
62248;BME280;48237;50.140;8.486;2022-09-09T12:44:52;99112.31;;;17.78;79.31
62248;BME280;48237;50.140;8.486;2022-09-09T12:47:23;99110.88;;;18.05;82.62
62248;BME280;48237;50.140;8.486;2022-09-09T12:49:52;99111.09;;;17.96;83.80
62248;BME280;48237;50.140;8.486;2022-09-09T12:52:24;99110.66;;;19.10;80.17
62248;BME280;48237;50.140;8.486;2022-09-09T12:54:52;99110.87;;;18.24;87.12
62248;BME280;48237;50.140;8.486;2022-09-09T12:57:20;99113.50;;;18.37;86.79
62248;BME280;48237;50.140;8.486;2022-09-09T12:59:49;99111.56;;;18.39;85.99
62248;BME280;48237;50.140;8.486;2022-09-09T13:02:20;99110.20;;;19.35;87.56
62248;BME280;48237;50.140;8.486;2022-09-09T13:04:47;99113.10;;;18.12;97.09
62248;BME280;48237;50.140;8.486;2022-09-09T13:07:14;99112.56;;;19.15;88.81
62248;BME280;48237;50.140;8.486;2022-09-09T13:09:41;99113.01;;;18.73;92.36
62248;BME280;48237;50.140;8.486;2022-09-09T13:12:13;99108.47;;;18.96;87.03
62248;BME280;48237;50.140;8.486;2022-09-09T13:14:43;99110.27;;;18.49;97.36
62248;BME280;48237;50.140;8.486;2022-09-09T13:17:19;99109.60;;;18.28;95.09
62248;BME280;48237;50.140;8.486;2022-09-09T13:19:48;99099.52;;;18.94;77.20
62248;BME280;48237;50.140;8.486;2022-09-09T13:22:23;99100.47;;;18.62;80.59